Latest Coastal Weather Observations for Dennes Point

IDT60701

Issued at 10:05 am EDT Friday 21 November 2014 (issued every 10 minutes, with the page automatically refreshed every 10 minutes)

About coastal observations | Map of coastal stations | Coastal observations for TAS | Marine services | Other Formats
Station Details ID: 094255 Name: DENNES POINT Lat: -43.06 Lon: 147.36 Height: 5.67 m
Data from the previous 72 hours. | See also: Recent months at Dennes Point
Date/Time
EDT
Temp

°C
Wind Pressure Rain
since 9am
mm
Weather Cloud Vis
km
Sea
Height
m
Swell
Dir
 
Speed
knots
Gust
knots
hPa Trend Height
m
Period
s
Dir
21/10:00am 11.9 SW 8 12 1004.4 - 0.0 - - - - - - -
21/09:30am 12.4 SSW 10 15 1003.7 - 0.0 - - - - - - -
21/09:00am 12.2 SSW 11 17 1003.5 - 0.4 - - - - - - -
21/08:30am 12.8 SSW 8 13 1002.7 - 0.4 - - - - - - -
21/08:00am 12.5 S 11 16 1002.4 - 0.4 - - - - - - -
21/07:30am 13.0 S 7 11 1001.9 - 0.4 - - - - - - -
21/07:00am 12.7 SSW 8 13 1001.3 - 0.4 - - - - - - -
21/06:30am 12.4 SSW 8 14 1001.0 - 0.4 - - - - - - -
21/06:00am 12.6 SSW 6 10 1000.6 - 0.2 - - - - - - -
21/05:30am 13.0 S 6 11 1000.2 - 0.2 - - - - - - -
21/05:00am 13.0 SW 5 6 999.9 - 0.2 - - - - - - -
21/04:30am 12.9 SSW 6 8 999.5 - 0.2 - - - - - - -
21/04:00am 12.8 S 1 4 999.5 - 0.2 - - - - - - -
21/03:30am 12.9 ENE 2 3 999.1 - 0.2 - - - - - - -
21/03:00am 12.9 SSE 3 6 999.5 - 0.2 - - - - - - -
21/02:30am 12.9 S 2 3 999.6 - 0.2 - - - - - - -
21/02:00am 12.7 SSW 1 2 999.5 - 0.2 - - - - - - -
21/01:30am 12.8 SSW 2 3 999.5 - 0.2 - - - - - - -
21/01:00am 12.8 SSW 2 2 999.6 - 0.2 - - - - - - -
21/12:30am 13.3 SSW 2 3 1000.0 - 0.2 - - - - - - -
21/12:00am 13.4 SW 3 5 999.9 - 0.2 - - - - - - -
 
Date/Time
EDT
Temp

°C
Wind Pressure Rain
since 9am
mm
Weather Cloud Vis
km
Sea
Height
m
Swell
Dir
 
Speed
knots
Gust
knots
hPa Trend Height
m
Period
s
Dir
20/11:30pm 13.3 CALM 0 1 1000.2 - 0.2 - - - - - - -
20/11:00pm 13.3 SW 5 7 1000.3 - 0.2 - - - - - - -
20/10:30pm 13.2 CALM 0 0 1000.2 - 0.2 - - - - - - -
20/10:00pm 13.4 S 2 3 1000.4 - 0.2 - - - - - - -
20/09:30pm 13.1 SSW 2 3 1000.4 - 0.2 - - - - - - -
20/09:00pm 13.1 SW 4 5 1000.4 - 0.2 - - - - - - -
20/08:30pm 13.2 SSW 4 6 1000.5 - 0.2 - - - - - - -
20/08:00pm 13.4 SSE 3 3 1000.1 - 0.2 - - - - - - -
20/07:30pm 13.5 CALM 0 0 1000.4 - 0.2 - - - - - - -
20/07:00pm 13.6 ESE 2 3 1000.6 - 0.2 - - - - - - -
20/06:30pm 13.6 ESE 2 3 1001.1 - 0.0 - - - - - - -
20/06:00pm 13.7 ESE 4 5 1001.0 - 0.0 - - - - - - -
20/05:30pm 13.7 ESE 6 8 1001.0 - 0.0 - - - - - - -
20/05:00pm 14.2 SE 3 5 1001.4 - 0.0 - - - - - - -
20/04:30pm 14.5 ESE 4 6 1001.5 - 0.0 - - - - - - -
20/04:00pm 14.2 SE 6 8 1001.6 - 0.0 - - - - - - -
20/03:30pm 15.1 SE 6 10 1001.6 - 0.0 - - - - - - -
20/03:00pm 15.4 S 6 8 1002.3 - 0.0 - - - - - - -
20/02:30pm 14.6 SSE 6 11 1002.8 - 0.0 - - - - - - -
20/02:00pm 14.9 ESE 8 12 1003.0 - 0.0 - - - - - - -
20/01:30pm 13.8 ESE 12 15 1003.5 - 0.0 - - - - - - -
20/01:00pm 14.1 SE 12 18 1003.8 - 0.0 - - - - - - -
20/12:30pm 17.6 ESE 5 14 1003.9 - 0.0 - - - - - - -
20/12:00pm 18.2 SE 7 9 1003.9 - 0.0 - - - - - - -
20/11:30am 18.4 W 2 4 1003.9 - 0.0 - - - - - - -
20/11:00am 17.9 NW 1 3 1004.1 - 0.0 - - - - - - -
20/10:30am 17.2 N 4 5 1004.5 - 0.0 - - - - - - -
20/10:00am 16.6 N 6 8 1004.5 - 0.0 - - - - - - -
20/09:30am 16.0 NNE 5 6 1004.7 - 0.0 - - - - - - -
20/09:00am 15.9 N 4 5 1005.2 - 0.0 - - - - - - -
20/08:30am 15.8 E 4 6 1005.4 - 0.0 - - - - - - -
20/08:00am 15.4 SE 4 8 1005.2 - 0.0 - - - - - - -
20/07:30am 14.4 SSW 5 8 1005.5 - 0.0 - - - - - - -
20/07:00am 13.9 SW 4 5 1005.4 - 0.0 - - - - - - -
20/06:30am 13.4 SSW 4 5 1005.3 - 0.0 - - - - - - -
20/06:00am 13.5 S 6 7 1004.7 - 0.0 - - - - - - -
20/05:30am 12.6 SSW 6 8 1004.7 - 0.0 - - - - - - -
20/05:00am 12.8 SSW 3 3 1004.6 - 0.0 - - - - - - -
20/04:30am 12.9 SSW 1 3 1004.8 - 0.0 - - - - - - -
20/04:00am 12.7 SSW 5 6 1005.0 - 0.0 - - - - - - -
20/03:30am 14.1 SE 2 4 1004.9 - 0.0 - - - - - - -
20/03:00am 14.3 SW 1 3 1005.4 - 0.0 - - - - - - -
20/02:30am 13.7 WSW 4 6 1005.6 - 0.0 - - - - - - -
20/02:00am 14.5 NNW 2 3 1005.5 - 0.0 - - - - - - -
20/01:30am 14.3 NNW 2 5 1006.0 - 0.0 - - - - - - -
20/01:00am 14.3 NNW 4 7 1006.5 - 0.0 - - - - - - -
20/12:30am 14.3 CALM 0 3 1006.8 - 0.0 - - - - - - -
20/12:00am 13.8 W 3 5 1007.6 - 0.0 - - - - - - -
 
Date/Time
EDT
Temp

°C
Wind Pressure Rain
since 9am
mm
Weather Cloud Vis
km
Sea
Height
m
Swell
Dir
 
Speed
knots
Gust
knots
hPa Trend Height
m
Period
s
Dir
19/11:30pm 13.2 WSW 1 4 1008.0 - 0.0 - - - - - - -
19/11:00pm 13.2 S 1 4 1008.0 - 0.0 - - - - - - -
19/10:30pm 13.3 CALM 0 1 1008.2 - 0.0 - - - - - - -
19/10:00pm 13.7 ENE 2 3 1008.5 - 0.0 - - - - - - -
19/09:30pm 13.5 ENE 2 2 1008.4 - 0.0 - - - - - - -
19/09:00pm 13.3 E 3 3 1008.3 - 0.0 - - - - - - -
19/08:30pm 13.1 SE 3 3 1008.9 - 0.0 - - - - - - -
19/08:00pm 13.9 ESE 4 6 1008.9 - 0.0 - - - - - - -
19/07:30pm 14.0 SE 5 7 1008.8 - 0.0 - - - - - - -
19/07:00pm 14.0 ESE 7 9 1008.9 - 0.0 - - - - - - -
19/06:30pm 14.3 ESE 10 13 1009.2 - 0.0 - - - - - - -
19/06:00pm 14.7 ESE 11 16 1009.1 - 0.0 - - - - - - -
19/05:30pm 15.6 ESE 12 16 1009.2 - 0.0 - - - - - - -
19/05:00pm 16.8 SE 10 13 1009.3 - 0.0 - - - - - - -
19/04:30pm 17.1 ESE 11 17 1009.1 - 0.0 - - - - - - -
19/04:00pm 18.6 ESE 10 13 1009.2 - 0.0 - - - - - - -
19/03:30pm 20.0 SE 9 13 1009.2 - 0.0 - - - - - - -
19/03:00pm 19.6 ESE 7 13 1009.8 - 0.0 - - - - - - -
19/02:30pm 19.9 ESE 9 11 1010.0 - 0.0 - - - - - - -
19/02:00pm 20.3 ESE 10 13 1010.0 - 0.0 - - - - - - -
19/01:30pm 21.6 ESE 8 11 1010.5 - 0.0 - - - - - - -
19/01:00pm 21.9 NE 6 9 1011.1 - 0.0 - - - - - - -
19/12:30pm 20.4 NNE 7 9 1011.7 - 0.0 - - - - - - -
19/12:00pm 19.4 NNE 8 11 1012.3 - 0.0 - - - - - - -
19/11:30am 18.9 ENE 4 7 1013.1 - 0.0 - - - - - - -
19/11:00am 17.3 NNE 2 4 1013.5 - 0.0 - - - - - - -
19/10:30am 16.7 NNE 6 8 1013.8 - 0.0 - - - - - - -
19/10:00am 16.8 NNE 5 7 1014.6 - 0.0 - - - - - - -
19/09:30am 15.8 NNE 7 8 1015.1 - 0.0 - - - - - - -
19/09:00am 15.7 N 5 6 1015.6 - 0.0 - - - - - - -
19/08:30am 15.7 WSW 5 8 1015.4 - 0.0 - - - - - - -
19/08:00am 15.2 WSW 4 6 1015.5 - 0.0 - - - - - - -
19/07:30am 14.4 WSW 4 6 1015.5 - 0.0 - - - - - - -
19/07:00am 13.9 W 2 4 1015.3 - 0.0 - - - - - - -
19/06:30am 12.9 N 2 3 1015.3 - 0.0 - - - - - - -
19/06:00am 12.4 N 2 6 1015.1 - 0.0 - - - - - - -
19/05:30am 12.4 NNW 2 3 1015.1 - 0.0 - - - - - - -
19/05:00am 12.6 NNW 1 2 1015.0 - 0.0 - - - - - - -
19/04:30am 13.4 N 4 7 1014.9 - 0.0 - - - - - - -
19/04:00am 12.7 W 6 10 1015.1 - 0.0 - - - - - - -
19/03:30am 12.8 W 9 12 1015.2 - 0.0 - - - - - - -
19/03:00am 12.9 W 8 10 1015.5 - 0.0 - - - - - - -
19/02:30am 12.4 W 6 8 1015.5 - 0.0 - - - - - - -
19/02:00am 12.9 W 9 13 1015.7 - 0.0 - - - - - - -
19/01:30am 12.9 W 6 9 1015.9 - 0.0 - - - - - - -
19/01:00am 13.0 NNW 2 - 1016.0 - - - - - - - - -
19/12:30am 13.2 W 12 16 1016.1 - 0.0 - - - - - - -
19/12:00am 13.6 WNW 11 16 1016.3 - 0.0 - - - - - - -
 
Date/Time
EDT
Temp

°C
Wind Pressure Rain
since 9am
mm
Weather Cloud Vis
km
Sea
Height
m
Swell
Dir
 
Speed
knots
Gust
knots
hPa Trend Height
m
Period
s
Dir
18/11:30pm 14.0 W 9 13 1016.4 - 0.0 - - - - - - -
18/11:00pm 14.0 W 16 19 1016.2 - 0.0 - - - - - - -
18/10:30pm 13.9 WSW 11 14 1016.2 - 0.0 - - - - - - -
18/10:00pm 14.0 WSW 8 12 1016.1 - 0.0 - - - - - - -
18/09:30pm 13.8 WSW 10 13 1015.7 - 0.0 - - - - - - -
18/09:00pm 14.0 WSW 12 16 1015.3 - 0.0 - - - - - - -
18/08:30pm 14.2 W 13 16 1014.9 - 0.0 - - - - - - -
18/08:00pm 14.3 WSW 14 18 1014.6 - 0.0 - - - - - - -
18/07:30pm 14.8 WSW 14 22 1014.3 - 0.0 - - - - - - -
18/07:00pm 14.8 SW 12 23 1013.8 - 0.0 - - - - - - -
18/06:30pm 15.1 WSW 18 26 1013.3 - 0.0 - - - - - - -
18/06:00pm 15.5 WSW 19 26 1013.0 - 0.0 - - - - - - -
18/05:30pm 15.8 WSW 20 29 1012.7 - 0.0 - - - - - - -
18/05:00pm 15.9 WSW 18 31 1012.3 - 0.0 - - - - - - -
18/04:33pm 16.1 WSW 19 30 1012.0 - 0.0 - - - - - - -
18/04:30pm 16.1 WSW 21 30 1012.1 - 0.0 - - - - - - -
18/04:23pm 16.2 WSW 19 29 1011.8 - 0.0 - - - - - - -
18/04:00pm 16.3 WSW 16 26 1011.6 - 0.0 - - - - - - -
18/03:30pm 16.9 W 19 29 1011.1 - 0.0 - - - - - - -
18/03:29pm 16.9 W 19 29 1011.2 - 0.0 - - - - - - -
18/03:26pm 16.8 W 21 29 1011.2 - 0.0 - - - - - - -
18/03:11pm 16.8 WNW 20 25 1011.1 - 0.0 - - - - - - -
18/03:08pm 16.9 WSW 17 30 1010.9 - 0.0 - - - - - - -
18/03:00pm 16.7 W 15 25 1011.0 - 0.0 - - - - - - -
18/02:30pm 18.2 W 19 31 1010.8 - 0.0 - - - - - - -
18/02:02pm 16.9 W 17 28 1010.5 - 0.0 - - - - - - -
18/02:00pm 16.9 W 15 22 1010.6 - 0.0 - - - - - - -
18/01:30pm 16.7 W 16 25 1010.8 - 0.0 - - - - - - -
18/01:00pm 16.0 WSW 13 29 1010.7 - 0.0 - - - - - - -
18/12:54pm 16.5 W 18 29 1010.6 - 0.0 - - - - - - -
18/12:30pm 16.7 W 18 25 1010.4 - 0.0 - - - - - - -
18/12:00pm 16.3 W 17 28 1009.8 - 0.0 - - - - - - -
18/11:59am 16.2 W 17 28 1009.9 - 0.0 - - - - - - -
18/11:30am 16.2 W 15 24 1009.9 - 0.0 - - - - - - -
18/11:00am 15.8 W 17 23 1009.9 - 0.0 - - - - - - -
18/10:45am 15.8 W 15 28 1009.6 - 0.0 - - - - - - -
18/10:30am 15.6 W 12 20 1009.5 - 0.0 - - - - - - -
18/10:23am 15.9 W 16 27 1009.6 - 0.0 - - - - - - -

Other Formats:

Comma delimited format used in spreadsheet applications
http://www.bom.gov.au/fwo/IDT60701/IDT60701.94988.axf

JavaScript Object Notation format (JSON) in row-major order
http://www.bom.gov.au/fwo/IDT60701/IDT60701.94988.json